createdAt,value
2018-12-13T00:01:59.364Z,16.80
2018-12-13T00:04:41.500Z,14.30
2018-12-13T00:07:11.805Z,14.20
2018-12-13T00:09:52.054Z,14.20
2018-12-13T00:12:22.738Z,14.20
2018-12-13T00:14:55.262Z,14.10
2018-12-13T00:17:25.114Z,14.10
2018-12-13T00:19:55.226Z,14.00
2018-12-13T00:22:25.324Z,14.00
2018-12-13T00:24:55.248Z,14.00
2018-12-13T00:27:25.137Z,14.00
2018-12-13T00:29:55.460Z,14.00
2018-12-13T00:32:34.246Z,14.00
2018-12-13T00:35:08.468Z,14.00
2018-12-13T00:37:38.351Z,14.00
2018-12-13T00:40:08.534Z,14.00
2018-12-13T00:42:38.450Z,14.00
2018-12-13T00:45:08.409Z,14.10
2018-12-13T00:47:38.440Z,14.20
2018-12-13T00:50:08.907Z,14.20
2018-12-13T00:52:38.685Z,14.20
2018-12-13T00:55:08.446Z,14.40
2018-12-13T00:57:38.533Z,14.50
2018-12-13T01:00:08.567Z,14.40
2018-12-13T01:02:38.413Z,14.40
2018-12-13T01:05:08.630Z,14.50
2018-12-13T01:07:38.681Z,14.40
2018-12-13T01:10:09.317Z,14.40
2018-12-13T01:12:39.389Z,14.20
2018-12-13T01:15:23.009Z,14.20
2018-12-13T01:17:54.894Z,14.20
2018-12-13T01:20:24.822Z,14.20
2018-12-13T01:22:54.933Z,14.20
2018-12-13T01:25:24.906Z,14.10
2018-12-13T01:27:54.999Z,14.00
2018-12-13T01:30:24.924Z,14.00
2018-12-13T01:32:55.031Z,14.00
2018-12-13T01:35:24.951Z,13.90
2018-12-13T01:37:55.200Z,13.90
2018-12-13T01:40:24.906Z,13.90
2018-12-13T01:42:54.823Z,14.00
2018-12-13T01:45:24.803Z,14.00
2018-12-13T01:47:54.670Z,14.00
2018-12-13T01:50:24.535Z,14.00
2018-12-13T01:52:54.400Z,14.10
2018-12-13T01:55:24.520Z,14.00
2018-12-13T01:57:54.381Z,14.00
2018-12-13T02:00:24.114Z,14.00
2018-12-13T02:02:53.957Z,14.00
2018-12-13T02:05:23.837Z,14.00
2018-12-13T02:07:53.447Z,14.00
2018-12-13T02:10:23.271Z,14.00
2018-12-13T02:12:53.283Z,14.00
2018-12-13T02:15:23.170Z,14.00
2018-12-13T02:17:52.973Z,14.00
2018-12-13T02:20:42.983Z,13.80
2018-12-13T02:23:13.288Z,13.80
2018-12-13T02:25:43.314Z,13.70
2018-12-13T02:28:13.079Z,13.70
2018-12-13T02:30:44.157Z,13.70
2018-12-13T02:33:13.917Z,13.70
2018-12-13T02:35:43.804Z,13.70
2018-12-13T02:38:13.821Z,13.70
2018-12-13T02:40:43.750Z,13.70
2018-12-13T02:43:14.215Z,13.70
2018-12-13T02:45:43.954Z,13.70
2018-12-13T02:48:13.707Z,13.70
2018-12-13T02:50:43.502Z,13.60
2018-12-13T02:53:14.500Z,13.70
2018-12-13T02:55:44.765Z,13.60
2018-12-13T02:58:14.829Z,13.60
2018-12-13T03:00:45.089Z,13.50
2018-12-13T03:03:31.026Z,13.50
2018-12-13T03:06:01.489Z,13.50
2018-12-13T03:08:31.174Z,13.50
2018-12-13T03:11:03.404Z,13.60
2018-12-13T03:13:33.103Z,13.60
2018-12-13T03:16:03.107Z,13.60
2018-12-13T03:18:34.670Z,13.60
2018-12-13T03:21:04.613Z,13.60
2018-12-13T03:23:34.094Z,13.60
2018-12-13T03:26:05.126Z,13.60
2018-12-13T03:28:34.613Z,13.70
2018-12-13T03:31:04.834Z,13.70
2018-12-13T03:33:34.420Z,13.70
2018-12-13T03:36:04.387Z,13.70
2018-12-13T03:38:34.261Z,13.70
2018-12-13T03:41:04.316Z,13.70
2018-12-13T03:43:33.904Z,13.60
2018-12-13T03:46:04.053Z,13.60
2018-12-13T03:48:33.517Z,13.50
2018-12-13T03:51:03.704Z,13.50
2018-12-13T03:53:33.137Z,13.50
2018-12-13T03:56:03.301Z,13.50
2018-12-13T03:58:32.777Z,13.50
2018-12-13T04:01:03.820Z,13.50
2018-12-13T04:03:33.828Z,13.50
2018-12-13T04:06:03.926Z,13.50
2018-12-13T04:08:45.059Z,13.40
2018-12-13T04:11:15.563Z,13.40
2018-12-13T04:13:45.322Z,13.40
2018-12-13T04:16:15.208Z,13.40
2018-12-13T04:18:47.009Z,13.40
2018-12-13T04:21:17.232Z,13.40
2018-12-13T04:23:46.976Z,13.40
2018-12-13T04:26:16.723Z,13.40
2018-12-13T04:28:46.816Z,13.40
2018-12-13T04:31:16.714Z,13.30
2018-12-13T04:33:46.447Z,13.30
2018-12-13T04:36:16.184Z,13.30
2018-12-13T04:38:47.190Z,13.20
2018-12-13T04:41:17.170Z,13.20
2018-12-13T04:43:47.024Z,13.20
2018-12-13T04:46:16.729Z,13.20
2018-12-13T04:48:46.504Z,13.20
2018-12-13T04:51:21.638Z,13.20
2018-12-13T04:53:51.532Z,13.30
2018-12-13T04:56:21.460Z,13.30
2018-12-13T04:58:51.498Z,13.30
2018-12-13T05:01:21.143Z,13.30
2018-12-13T05:03:50.923Z,13.40
2018-12-13T05:06:20.763Z,13.40
2018-12-13T05:08:50.539Z,13.40
2018-12-13T05:11:20.464Z,13.40
2018-12-13T05:13:50.258Z,13.30
2018-12-13T05:16:20.426Z,13.30
2018-12-13T05:18:50.263Z,13.30
2018-12-13T05:21:20.209Z,13.40
2018-12-13T05:23:50.320Z,13.40
2018-12-13T05:26:20.168Z,13.40
2018-12-13T05:29:03.080Z,13.40
2018-12-13T05:31:32.550Z,13.40
2018-12-13T05:34:29.141Z,13.30
2018-12-13T05:36:59.196Z,13.40
2018-12-13T05:39:29.007Z,13.40
2018-12-13T05:41:58.898Z,13.50
2018-12-13T05:44:28.440Z,13.50
2018-12-13T05:46:58.893Z,13.50
2018-12-13T05:49:28.388Z,13.60
2018-12-13T05:51:58.247Z,13.50
2018-12-13T05:54:28.353Z,13.50
2018-12-13T05:56:58.152Z,13.50
2018-12-13T05:59:27.769Z,13.50
2018-12-13T06:01:57.737Z,13.40
2018-12-13T06:04:27.479Z,13.40
2018-12-13T06:06:57.391Z,13.40
2018-12-13T06:09:27.453Z,13.60
2018-12-13T06:11:57.158Z,13.50
2018-12-13T06:14:27.284Z,13.40
2018-12-13T06:16:57.271Z,13.40
2018-12-13T06:19:27.231Z,13.40
2018-12-13T06:21:57.063Z,13.40
2018-12-13T06:24:27.422Z,13.40
2018-12-13T06:26:57.177Z,13.40
2018-12-13T06:29:27.231Z,13.40
2018-12-13T06:31:57.230Z,13.40
2018-12-13T06:34:27.313Z,13.40
2018-12-13T06:36:57.426Z,13.30
2018-12-13T06:39:27.828Z,13.30
2018-12-13T06:41:58.729Z,13.30
2018-12-13T06:44:28.919Z,13.20
2018-12-13T06:46:59.774Z,13.20
2018-12-13T06:49:30.227Z,13.30
2018-12-13T06:51:59.992Z,13.30
2018-12-13T06:54:29.411Z,13.30
2018-12-13T06:57:00.596Z,13.30
2018-12-13T06:59:30.243Z,13.30
2018-12-13T07:02:00.189Z,13.30
2018-12-13T07:04:29.588Z,13.30
2018-12-13T07:06:59.483Z,13.30
2018-12-13T07:09:29.064Z,13.30
2018-12-13T07:11:58.923Z,13.20
2018-12-13T07:14:28.672Z,13.30
2018-12-13T07:16:58.755Z,13.30
2018-12-13T07:19:28.804Z,13.30
2018-12-13T07:21:58.601Z,13.30
2018-12-13T07:24:28.254Z,13.30
2018-12-13T07:26:57.931Z,13.30
2018-12-13T07:29:27.780Z,13.40
2018-12-13T07:31:57.751Z,13.40
2018-12-13T07:34:27.441Z,13.50
2018-12-13T07:36:57.475Z,13.60
2018-12-13T07:39:27.707Z,13.60
2018-12-13T07:42:02.067Z,13.70
2018-12-13T07:44:33.739Z,13.70
2018-12-13T07:47:04.265Z,13.70
2018-12-13T07:49:35.008Z,13.70
2018-12-13T07:52:05.032Z,13.70
2018-12-13T07:54:34.508Z,13.70
2018-12-13T07:57:04.708Z,13.80
2018-12-13T07:59:34.242Z,13.80
2018-12-13T08:02:05.723Z,13.90
2018-12-13T08:04:35.242Z,14.00
2018-12-13T08:07:05.156Z,14.00
2018-12-13T08:09:34.771Z,14.10
2018-12-13T08:12:04.755Z,13.90
2018-12-13T08:14:34.358Z,13.90
2018-12-13T08:17:04.463Z,13.70
2018-12-13T08:19:36.234Z,13.60
2018-12-13T08:22:06.495Z,13.60
2018-12-13T08:24:47.727Z,13.60
2018-12-13T08:27:20.382Z,13.70
2018-12-13T08:29:50.361Z,13.80
2018-12-13T08:32:20.311Z,13.80
2018-12-13T08:34:50.223Z,13.80
2018-12-13T08:37:20.058Z,13.80
2018-12-13T08:39:50.099Z,13.90
2018-12-13T08:42:20.111Z,13.80
2018-12-13T08:44:49.893Z,13.80
2018-12-13T08:47:19.720Z,13.90
2018-12-13T08:49:49.754Z,13.90
2018-12-13T08:52:19.660Z,13.90
2018-12-13T08:54:49.729Z,13.90
2018-12-13T08:57:19.918Z,13.90
2018-12-13T08:59:49.861Z,14.00
2018-12-13T09:02:19.823Z,14.00
2018-12-13T09:04:49.879Z,14.00
2018-12-13T09:07:19.859Z,14.10
2018-12-13T09:09:50.146Z,14.20
2018-12-13T09:12:20.944Z,14.30
2018-12-13T09:14:50.727Z,14.40
2018-12-13T09:17:20.605Z,14.40
2018-12-13T09:19:50.950Z,14.50
2018-12-13T09:22:20.882Z,14.30
2018-12-13T09:24:50.984Z,14.30
2018-12-13T09:27:20.763Z,14.40
2018-12-13T09:29:50.791Z,14.30
2018-12-13T09:32:20.913Z,14.30
2018-12-13T09:34:50.964Z,14.50
2018-12-13T09:40:24.672Z,14.40
2018-12-13T09:42:54.523Z,14.30
2018-12-13T09:45:24.695Z,14.30
2018-12-13T09:47:54.518Z,14.30
2018-12-13T09:50:24.503Z,14.30
2018-12-13T09:52:54.675Z,14.10
2018-12-13T09:55:24.518Z,14.10
2018-12-13T09:57:54.592Z,14.10
2018-12-13T10:00:24.737Z,14.10
2018-12-13T10:02:54.771Z,14.00
2018-12-13T10:05:24.868Z,13.90
2018-12-13T10:07:55.019Z,14.00
2018-12-13T10:10:25.003Z,13.90
2018-12-13T10:12:54.862Z,13.90
2018-12-13T10:15:25.080Z,13.80
2018-12-13T10:17:55.137Z,13.90
2018-12-13T10:20:25.275Z,13.80
2018-12-13T10:22:55.163Z,13.80
2018-12-13T10:25:26.102Z,13.80
2018-12-13T10:27:56.062Z,13.90
2018-12-13T10:30:38.579Z,13.90
2018-12-13T10:33:16.883Z,14.00
2018-12-13T10:35:46.832Z,14.10
2018-12-13T10:38:16.881Z,14.10
2018-12-13T10:40:47.396Z,14.10
2018-12-13T10:43:17.833Z,14.10
2018-12-13T10:45:47.700Z,14.20
2018-12-13T10:48:17.683Z,14.10
2018-12-13T10:50:47.759Z,14.30
2018-12-13T10:53:17.923Z,14.40
2018-12-13T10:55:59.111Z,14.40
2018-12-13T10:58:29.630Z,14.50
2018-12-13T11:01:04.845Z,14.50
2018-12-13T11:03:36.124Z,14.60
2018-12-13T11:06:06.131Z,14.50
2018-12-13T11:08:35.793Z,14.50
2018-12-13T11:11:06.128Z,14.60
2018-12-13T11:13:35.732Z,14.60
2018-12-13T11:16:05.512Z,14.60
2018-12-13T11:18:35.294Z,14.50
2018-12-13T11:21:05.482Z,14.40
2018-12-13T11:23:35.230Z,14.40
2018-12-13T11:26:05.682Z,14.40
2018-12-13T11:29:44.514Z,14.60
2018-12-13T11:32:14.544Z,14.60
2018-12-13T11:34:44.277Z,14.20
2018-12-13T11:37:13.999Z,14.00
2018-12-13T11:39:59.069Z,13.80
2018-12-13T11:42:33.437Z,13.80
2018-12-13T11:45:03.325Z,13.70
2018-12-13T11:47:33.351Z,13.60
2018-12-13T11:50:04.781Z,13.50
2018-12-13T11:52:35.496Z,13.40
2018-12-13T11:55:15.342Z,13.30
2018-12-13T11:57:45.474Z,13.30
2018-12-13T12:00:16.003Z,13.10
2018-12-13T12:02:46.037Z,13.10
2018-12-13T12:05:16.078Z,13.00
2018-12-13T12:07:45.899Z,12.90
2018-12-13T12:10:15.982Z,13.10
2018-12-13T12:12:45.943Z,13.30
2018-12-13T12:15:16.088Z,13.30
2018-12-13T12:17:46.226Z,13.50
2018-12-13T12:20:16.281Z,13.40
2018-12-13T12:22:46.776Z,13.30
2018-12-13T12:25:16.730Z,13.40
2018-12-13T12:27:46.669Z,13.40
2018-12-13T12:30:17.064Z,13.40
2018-12-13T12:32:46.767Z,13.30
2018-12-13T12:35:17.023Z,13.20
2018-12-13T12:37:47.154Z,13.20
2018-12-13T12:40:17.052Z,13.20
2018-12-13T12:42:46.952Z,13.30
2018-12-13T12:45:16.992Z,13.30
2018-12-13T12:47:47.365Z,13.30
2018-12-13T12:50:17.178Z,13.30
2018-12-13T12:52:47.366Z,13.20
2018-12-13T12:55:17.307Z,13.10
2018-12-13T12:57:47.266Z,12.90
2018-12-13T13:00:20.826Z,12.80
2018-12-13T13:02:50.949Z,12.90
2018-12-13T13:05:20.855Z,12.90
2018-12-13T13:07:50.906Z,13.00
2018-12-13T13:10:20.987Z,13.00
2018-12-13T13:13:04.937Z,13.00
2018-12-13T13:15:35.017Z,13.10
2018-12-13T13:18:05.814Z,13.20
2018-12-13T13:20:35.425Z,13.30
2018-12-13T13:23:05.764Z,13.30
2018-12-13T13:25:35.446Z,13.10
2018-12-13T13:28:05.321Z,13.00
2018-12-13T13:30:35.426Z,13.10
2018-12-13T13:33:05.299Z,13.20
2018-12-13T13:35:59.657Z,13.10
2018-12-13T13:38:33.208Z,13.10
2018-12-13T13:41:03.122Z,13.10
2018-12-13T13:46:29.679Z,13.20
2018-12-13T13:48:59.718Z,13.10
2018-12-13T13:51:29.608Z,13.10
2018-12-13T13:53:59.535Z,13.10
2018-12-13T13:56:29.385Z,13.00
2018-12-13T13:58:59.480Z,12.90
2018-12-13T14:01:29.513Z,13.00
2018-12-13T14:03:59.501Z,13.00
2018-12-13T14:06:29.218Z,12.90
2018-12-13T14:08:59.207Z,13.00
2018-12-13T14:11:29.073Z,13.00
2018-12-13T14:13:59.157Z,12.90
2018-12-13T14:16:28.948Z,12.90
2018-12-13T14:19:13.274Z,12.80
2018-12-13T14:21:47.457Z,12.80
2018-12-13T14:24:17.309Z,12.70
2018-12-13T14:26:47.504Z,12.70
2018-12-13T14:29:17.510Z,12.60
2018-12-13T14:31:47.574Z,12.60
2018-12-13T14:34:17.519Z,12.50
2018-12-13T14:36:47.382Z,12.50
2018-12-13T14:39:17.120Z,12.50
2018-12-13T14:41:53.022Z,12.50
2018-12-13T14:44:26.598Z,12.60
2018-12-13T14:46:56.545Z,12.70
2018-12-13T14:49:26.388Z,12.70
2018-12-13T14:51:56.337Z,12.60
2018-12-13T14:54:26.281Z,12.60
2018-12-13T14:56:56.342Z,12.70
2018-12-13T14:59:26.206Z,12.80
2018-12-13T15:01:56.069Z,12.70
2018-12-13T15:04:25.960Z,12.80
2018-12-13T15:06:55.976Z,12.90
2018-12-13T15:09:26.141Z,12.90
2018-12-13T15:11:56.352Z,12.70
2018-12-13T15:14:26.337Z,12.70
2018-12-13T15:16:56.398Z,12.80
2018-12-13T15:19:26.223Z,12.80
2018-12-13T15:21:56.108Z,12.80
2018-12-13T15:24:25.956Z,12.70
2018-12-13T15:26:55.869Z,12.70
2018-12-13T15:29:25.632Z,12.70
2018-12-13T15:31:59.257Z,12.80
2018-12-13T15:34:27.785Z,12.90
2018-12-13T15:36:57.925Z,12.90
2018-12-13T15:39:28.722Z,13.00
2018-12-13T15:41:58.572Z,12.90
2018-12-13T15:44:28.960Z,12.80
2018-12-13T15:47:17.104Z,12.80
2018-12-13T15:49:47.523Z,13.00
2018-12-13T15:52:17.421Z,13.00
2018-12-13T15:54:47.259Z,12.90
2018-12-13T15:57:17.352Z,12.90
2018-12-13T15:59:47.378Z,12.90
2018-12-13T16:02:17.502Z,12.90
2018-12-13T16:04:47.363Z,12.90
2018-12-13T16:07:17.426Z,12.90
2018-12-13T16:09:56.908Z,12.90
2018-12-13T16:12:28.973Z,13.00
2018-12-13T16:14:58.879Z,13.00
2018-12-13T16:17:28.872Z,12.90
2018-12-13T16:19:58.995Z,12.90
2018-12-13T16:22:29.220Z,12.90
2018-12-13T16:24:59.229Z,13.00
2018-12-13T16:27:29.095Z,13.20
2018-12-13T16:30:05.176Z,13.30
2018-12-13T16:32:34.732Z,13.30
2018-12-13T16:35:04.759Z,13.30
2018-12-13T16:37:35.110Z,13.30
2018-12-13T16:40:10.493Z,12.40
2018-12-13T16:42:40.244Z,13.20
2018-12-13T16:45:18.126Z,13.30
2018-12-13T16:47:48.255Z,13.30
2018-12-13T16:50:18.117Z,13.40
2018-12-13T16:52:51.081Z,13.30
2018-12-13T16:55:21.263Z,13.30
2018-12-13T16:57:51.157Z,13.30
2018-12-13T17:00:21.479Z,13.20
2018-12-13T17:02:51.694Z,13.20
2018-12-13T17:05:21.646Z,13.80
2018-12-13T17:07:51.695Z,13.20
2018-12-13T17:10:21.781Z,13.20
2018-12-13T17:12:52.312Z,13.20
2018-12-13T17:15:22.783Z,13.10
2018-12-13T17:17:52.882Z,13.00
2018-12-13T17:20:22.894Z,13.10
2018-12-13T17:22:52.963Z,13.10
2018-12-13T17:25:22.956Z,13.20
2018-12-13T17:27:53.245Z,13.20
2018-12-13T17:30:23.498Z,13.20
2018-12-13T17:32:53.476Z,13.20
2018-12-13T17:35:23.654Z,13.30
2018-12-13T17:37:53.913Z,13.20
2018-12-13T17:40:23.900Z,13.30
2018-12-13T17:42:54.044Z,13.30
2018-12-13T17:45:25.046Z,13.20
2018-12-13T17:47:55.118Z,13.10
2018-12-13T17:50:25.032Z,13.10
2018-12-13T17:52:54.892Z,13.10
2018-12-13T17:55:35.193Z,13.20
2018-12-13T17:58:05.970Z,13.20
2018-12-13T18:00:35.720Z,13.20
2018-12-13T18:03:06.049Z,13.30
2018-12-13T18:05:35.680Z,13.40
2018-12-13T18:08:06.028Z,13.40
2018-12-13T18:10:36.229Z,13.30
2018-12-13T18:13:06.650Z,13.20
2018-12-13T18:15:36.208Z,13.20
2018-12-13T18:18:06.372Z,13.10
2018-12-13T18:20:36.067Z,12.90
2018-12-13T18:23:05.975Z,12.90
2018-12-13T18:25:35.525Z,12.80
2018-12-13T18:28:05.911Z,12.70
2018-12-13T18:30:35.332Z,12.70
2018-12-13T18:33:05.463Z,12.70
2018-12-13T18:35:35.331Z,12.70
2018-12-13T18:38:11.004Z,12.70
2018-12-13T18:40:41.847Z,12.80
2018-12-13T18:43:13.979Z,12.80
2018-12-13T18:45:44.010Z,12.90
2018-12-13T18:48:14.120Z,12.90
2018-12-13T18:50:44.134Z,12.80
2018-12-13T18:53:14.303Z,12.80
2018-12-13T18:55:44.333Z,12.70
2018-12-13T18:58:15.409Z,12.70
2018-12-13T19:00:45.687Z,12.60
2018-12-13T19:03:15.837Z,12.60
2018-12-13T19:05:45.843Z,12.60
2018-12-13T19:08:16.087Z,12.60
2018-12-13T19:10:46.411Z,12.60
2018-12-13T19:13:16.568Z,12.60
2018-12-13T19:15:46.797Z,12.60
2018-12-13T19:18:16.867Z,12.60
2018-12-13T19:20:46.920Z,12.70
2018-12-13T19:23:17.180Z,12.70
2018-12-13T19:25:47.022Z,12.70
2018-12-13T19:28:16.918Z,12.60
2018-12-13T19:30:46.803Z,12.60
2018-12-13T19:33:16.722Z,12.60
2018-12-13T19:35:46.517Z,12.60
2018-12-13T19:38:16.783Z,12.70
2018-12-13T19:40:48.535Z,12.70
2018-12-13T19:43:20.402Z,12.80
2018-12-13T19:45:50.874Z,12.70
2018-12-13T19:48:20.838Z,12.70
2018-12-13T19:50:51.328Z,12.70
2018-12-13T19:53:21.480Z,12.70
2018-12-13T19:55:51.665Z,12.80
2018-12-13T19:58:21.855Z,12.70
2018-12-13T20:00:52.471Z,12.70
2018-12-13T20:03:22.855Z,12.70
2018-12-13T20:05:52.698Z,12.80
2018-12-13T20:08:22.630Z,12.80
2018-12-13T20:10:54.778Z,12.80
2018-12-13T20:13:24.503Z,12.70
2018-12-13T20:15:54.541Z,12.50
2018-12-13T20:18:24.917Z,12.80
2018-12-13T20:20:54.935Z,12.50
2018-12-13T20:23:25.060Z,12.60
2018-12-13T20:25:55.089Z,12.50
2018-12-13T20:28:25.420Z,12.50
2018-12-13T20:30:55.339Z,12.60
2018-12-13T20:33:25.379Z,12.60
2018-12-13T20:35:55.578Z,12.50
2018-12-13T20:38:25.485Z,12.60
2018-12-13T20:41:00.863Z,12.60
2018-12-13T20:43:27.746Z,12.70
2018-12-13T20:46:04.510Z,12.60
2018-12-13T20:48:35.221Z,12.70
2018-12-13T20:51:05.527Z,12.70
2018-12-13T20:53:35.022Z,12.80
2018-12-13T20:56:05.176Z,12.80
2018-12-13T20:58:34.811Z,12.80
2018-12-13T21:01:04.932Z,12.80
2018-12-13T21:03:34.749Z,12.80
2018-12-13T21:06:04.721Z,12.90
2018-12-13T21:08:34.466Z,12.80
2018-12-13T21:11:07.610Z,12.70
2018-12-13T21:13:36.416Z,12.70
2018-12-13T21:16:06.425Z,12.70
2018-12-13T21:18:36.030Z,12.70
2018-12-13T21:21:06.236Z,12.30
2018-12-13T21:23:36.287Z,12.80
2018-12-13T21:26:06.290Z,12.60
2018-12-13T21:28:35.753Z,12.50
2018-12-13T21:31:05.855Z,12.50
2018-12-13T21:33:35.399Z,12.50
2018-12-13T21:36:05.710Z,12.50
2018-12-13T21:38:35.224Z,12.50
2018-12-13T21:41:05.102Z,12.50
2018-12-13T21:43:44.112Z,12.50
2018-12-13T21:46:14.037Z,12.50
2018-12-13T21:48:44.568Z,12.40
2018-12-13T21:51:14.501Z,12.40
2018-12-13T21:53:44.625Z,12.40
2018-12-13T21:56:14.755Z,12.50
2018-12-13T21:58:44.452Z,12.50
2018-12-13T22:01:14.611Z,12.50
2018-12-13T22:03:44.481Z,12.50
2018-12-13T22:06:14.852Z,12.50
2018-12-13T22:08:45.008Z,12.50
2018-12-13T22:11:19.901Z,12.50
2018-12-13T22:13:47.307Z,12.40
2018-12-13T22:16:17.343Z,12.40
2018-12-13T22:18:47.453Z,12.50
2018-12-13T22:21:17.256Z,12.40
2018-12-13T22:23:47.158Z,12.20
2018-12-13T22:26:17.011Z,12.20
2018-12-13T22:29:17.206Z,12.30
2018-12-13T22:31:51.605Z,12.40
2018-12-13T22:34:21.645Z,12.40
2018-12-13T22:36:51.407Z,12.20
2018-12-13T22:39:21.087Z,12.20
2018-12-13T22:41:51.590Z,12.10
2018-12-13T22:44:21.583Z,12.10
2018-12-13T22:46:51.579Z,12.20
2018-12-13T22:49:21.769Z,12.20
2018-12-13T22:51:51.617Z,12.20
2018-12-13T22:54:38.679Z,12.20
2018-12-13T22:57:09.494Z,12.10
2018-12-13T22:59:39.123Z,12.00
2018-12-13T23:02:08.970Z,12.00
2018-12-13T23:04:38.972Z,11.90
2018-12-13T23:07:19.217Z,12.00
2018-12-13T23:09:49.428Z,11.90
2018-12-13T23:12:19.172Z,12.00
2018-12-13T23:14:49.603Z,11.90
2018-12-13T23:17:19.533Z,11.90
2018-12-13T23:19:51.070Z,11.80
2018-12-13T23:22:20.915Z,11.80
2018-12-13T23:24:50.795Z,11.80
2018-12-13T23:27:22.439Z,11.90
2018-12-13T23:29:52.371Z,11.90
2018-12-13T23:32:22.350Z,11.80
2018-12-13T23:34:51.835Z,11.70
2018-12-13T23:37:26.259Z,11.80
2018-12-13T23:39:56.160Z,11.90
2018-12-13T23:42:26.017Z,11.90
2018-12-13T23:44:55.901Z,12.00
2018-12-13T23:47:25.850Z,11.90
2018-12-13T23:49:55.651Z,12.00
2018-12-13T23:52:25.744Z,12.10
2018-12-13T23:54:55.711Z,12.20
2018-12-13T23:57:25.915Z,12.30
